sensor_id;sensor_type;location;lat;lon;timestamp;temperature;humidity
5118;DHT22;2578;51.622;7.046;2023-12-07T00:01:25;0.80;99.90
5118;DHT22;2578;51.622;7.046;2023-12-07T00:03:51;0.90;99.90
5118;DHT22;2578;51.622;7.046;2023-12-07T00:06:17;0.80;99.90
5118;DHT22;2578;51.622;7.046;2023-12-07T00:08:42;0.70;99.90
5118;DHT22;2578;51.622;7.046;2023-12-07T00:11:08;0.50;99.90
5118;DHT22;2578;51.622;7.046;2023-12-07T00:13:33;0.40;99.90
5118;DHT22;2578;51.622;7.046;2023-12-07T00:15:59;0.30;99.90
5118;DHT22;2578;51.622;7.046;2023-12-07T00:18:24;0.10;99.90
5118;DHT22;2578;51.622;7.046;2023-12-07T00:20:50;0.20;99.90
5118;DHT22;2578;51.622;7.046;2023-12-07T00:23:15;0.20;99.90
5118;DHT22;2578;51.622;7.046;2023-12-07T00:25:41;0.30;99.90
5118;DHT22;2578;51.622;7.046;2023-12-07T00:28:06;0.30;1.00
5118;DHT22;2578;51.622;7.046;2023-12-07T00:30:32;0.50;1.00
5118;DHT22;2578;51.622;7.046;2023-12-07T00:32:59;0.50;1.00
5118;DHT22;2578;51.622;7.046;2023-12-07T00:35:24;0.50;1.00
5118;DHT22;2578;51.622;7.046;2023-12-07T00:37:50;0.40;1.00
5118;DHT22;2578;51.622;7.046;2023-12-07T00:40:16;0.40;1.00
5118;DHT22;2578;51.622;7.046;2023-12-07T00:42:41;0.40;1.00
5118;DHT22;2578;51.622;7.046;2023-12-07T00:45:07;0.40;1.00
5118;DHT22;2578;51.622;7.046;2023-12-07T00:47:33;0.40;1.00
5118;DHT22;2578;51.622;7.046;2023-12-07T00:49:58;0.40;1.00
5118;DHT22;2578;51.622;7.046;2023-12-07T00:52:24;0.30;1.00
5118;DHT22;2578;51.622;7.046;2023-12-07T00:54:49;0.20;1.00
5118;DHT22;2578;51.622;7.046;2023-12-07T00:57:15;0.30;1.00
5118;DHT22;2578;51.622;7.046;2023-12-07T00:59:41;0.40;1.00
5118;DHT22;2578;51.622;7.046;2023-12-07T01:02:06;0.40;1.00
5118;DHT22;2578;51.622;7.046;2023-12-07T01:04:33;0.40;1.00
5118;DHT22;2578;51.622;7.046;2023-12-07T01:06:59;0.30;1.00
5118;DHT22;2578;51.622;7.046;2023-12-07T01:09:25;0.30;1.00
5118;DHT22;2578;51.622;7.046;2023-12-07T01:11:51;0.40;1.00
5118;DHT22;2578;51.622;7.046;2023-12-07T01:14:17;0.40;1.00
5118;DHT22;2578;51.622;7.046;2023-12-07T01:16:43;0.40;1.00
5118;DHT22;2578;51.622;7.046;2023-12-07T01:19:09;0.10;1.00
5118;DHT22;2578;51.622;7.046;2023-12-07T01:21:35;0.10;1.00
5118;DHT22;2578;51.622;7.046;2023-12-07T01:24:01;0.10;1.00
5118;DHT22;2578;51.622;7.046;2023-12-07T01:26:27;0.10;1.00
5118;DHT22;2578;51.622;7.046;2023-12-07T01:28:53;0.10;1.00
5118;DHT22;2578;51.622;7.046;2023-12-07T01:31:18;0.10;1.00
5118;DHT22;2578;51.622;7.046;2023-12-07T01:33:44;0.10;1.00
5118;DHT22;2578;51.622;7.046;2023-12-07T01:36:11;0.10;1.00
5118;DHT22;2578;51.622;7.046;2023-12-07T01:38:36;0.10;1.00
5118;DHT22;2578;51.622;7.046;2023-12-07T01:41:02;0.20;1.00
5118;DHT22;2578;51.622;7.046;2023-12-07T01:43:28;0.20;1.00
5118;DHT22;2578;51.622;7.046;2023-12-07T01:45:56;0.20;1.00
5118;DHT22;2578;51.622;7.046;2023-12-07T01:48:24;0.30;1.00
5118;DHT22;2578;51.622;7.046;2023-12-07T01:50:50;0.30;1.00
5118;DHT22;2578;51.622;7.046;2023-12-07T01:53:16;0.30;1.00
5118;DHT22;2578;51.622;7.046;2023-12-07T01:55:42;0.30;1.00
5118;DHT22;2578;51.622;7.046;2023-12-07T01:58:08;0.30;1.00
5118;DHT22;2578;51.622;7.046;2023-12-07T02:00:35;0.40;1.00
5118;DHT22;2578;51.622;7.046;2023-12-07T02:03:03;0.40;1.00
5118;DHT22;2578;51.622;7.046;2023-12-07T02:05:29;0.40;18.40
5118;DHT22;2578;51.622;7.046;2023-12-07T02:07:56;2.70;35.60
5118;DHT22;2578;51.622;7.046;2023-12-07T02:10:22;0.50;50.80
5118;DHT22;2578;51.622;7.046;2023-12-07T02:12:48;0.50;74.90
5118;DHT22;2578;51.622;7.046;2023-12-07T02:15:14;0.50;99.90
5118;DHT22;2578;51.622;7.046;2023-12-07T02:20:51;0.90;99.90
5118;DHT22;2578;51.622;7.046;2023-12-07T02:23:20;0.60;99.90
5118;DHT22;2578;51.622;7.046;2023-12-07T02:28:12;0.70;99.90
5118;DHT22;2578;51.622;7.046;2023-12-07T02:30:38;0.70;99.90
5118;DHT22;2578;51.622;7.046;2023-12-07T02:33:03;0.70;99.90
5118;DHT22;2578;51.622;7.046;2023-12-07T02:35:31;0.70;99.90
5118;DHT22;2578;51.622;7.046;2023-12-07T02:37:57;0.80;99.90
5118;DHT22;2578;51.622;7.046;2023-12-07T02:40:26;0.80;99.90
5118;DHT22;2578;51.622;7.046;2023-12-07T02:42:53;0.80;99.90
5118;DHT22;2578;51.622;7.046;2023-12-07T02:45:19;0.70;1.00
5118;DHT22;2578;51.622;7.046;2023-12-07T02:47:45;0.70;1.00
5118;DHT22;2578;51.622;7.046;2023-12-07T02:50:11;0.70;1.00
5118;DHT22;2578;51.622;7.046;2023-12-07T02:52:38;1.30;1.00
5118;DHT22;2578;51.622;7.046;2023-12-07T02:55:04;0.60;1.00
5118;DHT22;2578;51.622;7.046;2023-12-07T02:57:30;0.60;1.00
5118;DHT22;2578;51.622;7.046;2023-12-07T02:59:56;0.50;1.00
5118;DHT22;2578;51.622;7.046;2023-12-07T03:02:22;0.50;1.00
5118;DHT22;2578;51.622;7.046;2023-12-07T03:04:48;0.50;1.00
5118;DHT22;2578;51.622;7.046;2023-12-07T03:07:13;2.30;1.00
5118;DHT22;2578;51.622;7.046;2023-12-07T03:09:39;0.50;1.00
5118;DHT22;2578;51.622;7.046;2023-12-07T03:12:06;0.50;1.00
5118;DHT22;2578;51.622;7.046;2023-12-07T03:14:31;0.70;28.30
5118;DHT22;2578;51.622;7.046;2023-12-07T03:16:57;0.50;53.50
5118;DHT22;2578;51.622;7.046;2023-12-07T03:19:22;0.50;97.20
5118;DHT22;2578;51.622;7.046;2023-12-07T03:21:48;0.50;99.90
5118;DHT22;2578;51.622;7.046;2023-12-07T03:24:14;0.50;99.90
5118;DHT22;2578;51.622;7.046;2023-12-07T03:26:39;0.40;99.90
5118;DHT22;2578;51.622;7.046;2023-12-07T03:29:07;0.50;99.90
5118;DHT22;2578;51.622;7.046;2023-12-07T03:31:32;0.50;99.90
5118;DHT22;2578;51.622;7.046;2023-12-07T03:33:58;0.50;99.90
5118;DHT22;2578;51.622;7.046;2023-12-07T03:36:26;0.70;99.90
5118;DHT22;2578;51.622;7.046;2023-12-07T03:38:52;0.60;99.90
5118;DHT22;2578;51.622;7.046;2023-12-07T03:41:18;0.60;99.90
5118;DHT22;2578;51.622;7.046;2023-12-07T03:43:44;0.70;99.90
5118;DHT22;2578;51.622;7.046;2023-12-07T03:46:09;0.70;99.90
5118;DHT22;2578;51.622;7.046;2023-12-07T03:48:35;0.70;99.90
5118;DHT22;2578;51.622;7.046;2023-12-07T03:51:01;0.80;99.90
5118;DHT22;2578;51.622;7.046;2023-12-07T03:53:27;0.80;99.90
5118;DHT22;2578;51.622;7.046;2023-12-07T03:55:53;0.80;99.90
5118;DHT22;2578;51.622;7.046;2023-12-07T03:58:18;0.80;99.90
5118;DHT22;2578;51.622;7.046;2023-12-07T04:00:45;0.80;99.90
5118;DHT22;2578;51.622;7.046;2023-12-07T04:03:10;0.80;99.90
5118;DHT22;2578;51.622;7.046;2023-12-07T04:05:36;0.90;1.00
5118;DHT22;2578;51.622;7.046;2023-12-07T04:08:01;0.90;1.00
5118;DHT22;2578;51.622;7.046;2023-12-07T04:10:27;0.90;1.00
5118;DHT22;2578;51.622;7.046;2023-12-07T04:12:53;1.60;1.00
5118;DHT22;2578;51.622;7.046;2023-12-07T04:15:19;0.90;1.00
5118;DHT22;2578;51.622;7.046;2023-12-07T04:17:45;0.90;1.00
5118;DHT22;2578;51.622;7.046;2023-12-07T04:20:11;0.90;1.00
5118;DHT22;2578;51.622;7.046;2023-12-07T04:22:38;0.90;1.00
5118;DHT22;2578;51.622;7.046;2023-12-07T04:25:05;0.90;1.00
5118;DHT22;2578;51.622;7.046;2023-12-07T04:27:31;0.90;1.00
5118;DHT22;2578;51.622;7.046;2023-12-07T04:29:57;0.90;1.00
5118;DHT22;2578;51.622;7.046;2023-12-07T04:32:23;1.00;1.00
5118;DHT22;2578;51.622;7.046;2023-12-07T04:34:49;1.00;1.00
5118;DHT22;2578;51.622;7.046;2023-12-07T04:37:15;1.00;1.00
5118;DHT22;2578;51.622;7.046;2023-12-07T04:39:40;1.10;1.00
5118;DHT22;2578;51.622;7.046;2023-12-07T04:42:06;1.10;1.00
5118;DHT22;2578;51.622;7.046;2023-12-07T04:44:31;1.10;17.60
5118;DHT22;2578;51.622;7.046;2023-12-07T04:46:57;1.20;46.10
5118;DHT22;2578;51.622;7.046;2023-12-07T04:49:23;1.30;99.50
5118;DHT22;2578;51.622;7.046;2023-12-07T04:51:48;1.30;99.90
5118;DHT22;2578;51.622;7.046;2023-12-07T04:54:14;1.30;99.90
5118;DHT22;2578;51.622;7.046;2023-12-07T04:56:41;1.40;99.90
5118;DHT22;2578;51.622;7.046;2023-12-07T04:59:07;1.50;99.90
5118;DHT22;2578;51.622;7.046;2023-12-07T05:01:34;2.90;99.90
5118;DHT22;2578;51.622;7.046;2023-12-07T05:04:01;1.50;99.90
5118;DHT22;2578;51.622;7.046;2023-12-07T05:06:29;1.50;99.90
5118;DHT22;2578;51.622;7.046;2023-12-07T05:08:54;1.60;99.90
5118;DHT22;2578;51.622;7.046;2023-12-07T05:11:20;1.60;99.90
5118;DHT22;2578;51.622;7.046;2023-12-07T05:13:46;1.60;99.90
5118;DHT22;2578;51.622;7.046;2023-12-07T05:16:11;1.70;99.90
5118;DHT22;2578;51.622;7.046;2023-12-07T05:18:37;1.70;99.90
5118;DHT22;2578;51.622;7.046;2023-12-07T05:21:02;1.70;99.90
5118;DHT22;2578;51.622;7.046;2023-12-07T05:23:28;1.70;99.90
5118;DHT22;2578;51.622;7.046;2023-12-07T05:25:54;1.80;99.90
5118;DHT22;2578;51.622;7.046;2023-12-07T05:28:19;1.80;99.90
5118;DHT22;2578;51.622;7.046;2023-12-07T05:30:45;1.80;99.90
5118;DHT22;2578;51.622;7.046;2023-12-07T05:33:11;1.80;99.90
5118;DHT22;2578;51.622;7.046;2023-12-07T05:35:37;1.80;99.90
5118;DHT22;2578;51.622;7.046;2023-12-07T05:38:02;1.90;99.90
5118;DHT22;2578;51.622;7.046;2023-12-07T05:40:28;2.00;99.90
5118;DHT22;2578;51.622;7.046;2023-12-07T05:42:54;2.00;99.90
5118;DHT22;2578;51.622;7.046;2023-12-07T05:45:20;1.90;99.90
5118;DHT22;2578;51.622;7.046;2023-12-07T05:47:46;1.90;99.90
5118;DHT22;2578;51.622;7.046;2023-12-07T05:50:12;2.00;99.90
5118;DHT22;2578;51.622;7.046;2023-12-07T05:52:37;2.00;99.90
5118;DHT22;2578;51.622;7.046;2023-12-07T05:55:04;2.00;99.90
5118;DHT22;2578;51.622;7.046;2023-12-07T05:57:30;2.00;99.90
5118;DHT22;2578;51.622;7.046;2023-12-07T05:59:56;1.90;99.90
5118;DHT22;2578;51.622;7.046;2023-12-07T06:02:22;1.90;99.90
5118;DHT22;2578;51.622;7.046;2023-12-07T06:04:47;1.90;99.90
5118;DHT22;2578;51.622;7.046;2023-12-07T06:07:13;1.90;99.90
5118;DHT22;2578;51.622;7.046;2023-12-07T06:09:38;1.90;99.90
5118;DHT22;2578;51.622;7.046;2023-12-07T06:12:04;1.90;99.90
5118;DHT22;2578;51.622;7.046;2023-12-07T06:14:30;1.90;99.90
5118;DHT22;2578;51.622;7.046;2023-12-07T06:16:55;1.90;99.90
5118;DHT22;2578;51.622;7.046;2023-12-07T06:19:21;1.90;99.90
5118;DHT22;2578;51.622;7.046;2023-12-07T06:21:46;1.90;99.90
5118;DHT22;2578;51.622;7.046;2023-12-07T06:24:12;1.90;99.90
5118;DHT22;2578;51.622;7.046;2023-12-07T06:26:39;1.90;99.90
5118;DHT22;2578;51.622;7.046;2023-12-07T06:29:05;2.00;99.90
5118;DHT22;2578;51.622;7.046;2023-12-07T06:31:33;2.00;99.90
5118;DHT22;2578;51.622;7.046;2023-12-07T06:33:58;2.00;76.90
5118;DHT22;2578;51.622;7.046;2023-12-07T06:36:25;2.00;45.10
5118;DHT22;2578;51.622;7.046;2023-12-07T06:38:52;2.00;1.00
5118;DHT22;2578;51.622;7.046;2023-12-07T06:41:18;1.90;1.00
5118;DHT22;2578;51.622;7.046;2023-12-07T06:43:44;1.90;1.00
5118;DHT22;2578;51.622;7.046;2023-12-07T06:46:13;2.00;1.00
5118;DHT22;2578;51.622;7.046;2023-12-07T06:48:40;1.90;1.00
5118;DHT22;2578;51.622;7.046;2023-12-07T06:51:05;1.90;1.00
5118;DHT22;2578;51.622;7.046;2023-12-07T06:53:31;1.90;99.90
5118;DHT22;2578;51.622;7.046;2023-12-07T06:55:57;2.00;99.90
5118;DHT22;2578;51.622;7.046;2023-12-07T06:58:23;1.90;99.90
5118;DHT22;2578;51.622;7.046;2023-12-07T07:00:49;1.80;99.90
5118;DHT22;2578;51.622;7.046;2023-12-07T07:03:15;1.80;99.90
5118;DHT22;2578;51.622;7.046;2023-12-07T07:05:41;1.80;99.90
5118;DHT22;2578;51.622;7.046;2023-12-07T07:08:06;1.80;99.90
5118;DHT22;2578;51.622;7.046;2023-12-07T07:10:34;1.70;99.90
5118;DHT22;2578;51.622;7.046;2023-12-07T07:13:00;1.70;99.90
5118;DHT22;2578;51.622;7.046;2023-12-07T07:15:28;1.60;99.90
5118;DHT22;2578;51.622;7.046;2023-12-07T07:17:53;1.60;99.90
5118;DHT22;2578;51.622;7.046;2023-12-07T07:20:19;1.30;99.90
5118;DHT22;2578;51.622;7.046;2023-12-07T07:22:46;1.30;99.90
5118;DHT22;2578;51.622;7.046;2023-12-07T07:25:11;1.30;91.20
5118;DHT22;2578;51.622;7.046;2023-12-07T07:27:37;1.30;86.70
5118;DHT22;2578;51.622;7.046;2023-12-07T07:30:03;1.40;68.40
5118;DHT22;2578;51.622;7.046;2023-12-07T07:32:29;1.40;75.80
5118;DHT22;2578;51.622;7.046;2023-12-07T07:34:56;1.40;47.10
5118;DHT22;2578;51.622;7.046;2023-12-07T07:37:22;1.40;44.40
5118;DHT22;2578;51.622;7.046;2023-12-07T07:39:47;1.40;15.90
5118;DHT22;2578;51.622;7.046;2023-12-07T07:42:13;1.40;15.20
5118;DHT22;2578;51.622;7.046;2023-12-07T07:44:38;1.40;11.20
5118;DHT22;2578;51.622;7.046;2023-12-07T07:47:04;1.40;9.50
5118;DHT22;2578;51.622;7.046;2023-12-07T07:49:30;-0.40;1.00
5118;DHT22;2578;51.622;7.046;2023-12-07T07:51:56;1.30;8.50
5118;DHT22;2578;51.622;7.046;2023-12-07T07:54:21;1.20;1.00
5118;DHT22;2578;51.622;7.046;2023-12-07T07:56:47;1.00;1.00
5118;DHT22;2578;51.622;7.046;2023-12-07T07:59:12;0.90;1.00
5118;DHT22;2578;51.622;7.046;2023-12-07T08:01:38;3.50;1.00
5118;DHT22;2578;51.622;7.046;2023-12-07T08:04:04;1.10;1.00
5118;DHT22;2578;51.622;7.046;2023-12-07T08:06:29;1.10;1.00
5118;DHT22;2578;51.622;7.046;2023-12-07T08:08:55;1.20;1.00
5118;DHT22;2578;51.622;7.046;2023-12-07T08:11:20;1.40;1.00
5118;DHT22;2578;51.622;7.046;2023-12-07T08:13:46;1.40;1.00
5118;DHT22;2578;51.622;7.046;2023-12-07T08:16:11;1.50;1.00
5118;DHT22;2578;51.622;7.046;2023-12-07T08:18:37;1.60;1.00
5118;DHT22;2578;51.622;7.046;2023-12-07T08:21:03;1.70;1.00
5118;DHT22;2578;51.622;7.046;2023-12-07T08:23:29;1.70;1.00
5118;DHT22;2578;51.622;7.046;2023-12-07T08:25:55;1.70;1.00
5118;DHT22;2578;51.622;7.046;2023-12-07T08:28:22;1.70;1.00
5118;DHT22;2578;51.622;7.046;2023-12-07T08:30:48;2.00;9.20
5118;DHT22;2578;51.622;7.046;2023-12-07T08:33:14;2.00;20.10
5118;DHT22;2578;51.622;7.046;2023-12-07T08:35:39;2.10;12.50
5118;DHT22;2578;51.622;7.046;2023-12-07T08:38:05;2.10;19.20
5118;DHT22;2578;51.622;7.046;2023-12-07T08:40:31;2.20;31.30
5118;DHT22;2578;51.622;7.046;2023-12-07T08:42:57;2.30;58.60
5118;DHT22;2578;51.622;7.046;2023-12-07T08:45:22;2.40;93.70
5118;DHT22;2578;51.622;7.046;2023-12-07T08:47:49;2.50;93.60
5118;DHT22;2578;51.622;7.046;2023-12-07T08:50:15;2.50;91.30
5118;DHT22;2578;51.622;7.046;2023-12-07T08:52:40;2.40;86.60
5118;DHT22;2578;51.622;7.046;2023-12-07T08:55:06;2.50;71.20
5118;DHT22;2578;51.622;7.046;2023-12-07T08:57:32;2.50;76.40
5118;DHT22;2578;51.622;7.046;2023-12-07T08:59:57;2.80;99.90
5118;DHT22;2578;51.622;7.046;2023-12-07T09:02:25;2.90;99.90
5118;DHT22;2578;51.622;7.046;2023-12-07T09:04:50;3.20;99.90
5118;DHT22;2578;51.622;7.046;2023-12-07T09:07:17;3.50;99.90
5118;DHT22;2578;51.622;7.046;2023-12-07T09:09:43;3.90;99.90
5118;DHT22;2578;51.622;7.046;2023-12-07T09:12:14;4.00;99.90
5118;DHT22;2578;51.622;7.046;2023-12-07T09:14:40;4.20;99.90
5118;DHT22;2578;51.622;7.046;2023-12-07T09:17:06;4.50;99.90
5118;DHT22;2578;51.622;7.046;2023-12-07T09:19:31;4.70;99.90
5118;DHT22;2578;51.622;7.046;2023-12-07T09:21:57;4.60;99.90
5118;DHT22;2578;51.622;7.046;2023-12-07T09:24:24;5.00;99.90
5118;DHT22;2578;51.622;7.046;2023-12-07T09:26:49;5.60;1.00
5118;DHT22;2578;51.622;7.046;2023-12-07T09:29:15;6.20;99.90
5118;DHT22;2578;51.622;7.046;2023-12-07T09:31:40;6.20;99.90
5118;DHT22;2578;51.622;7.046;2023-12-07T09:34:06;6.10;1.00
5118;DHT22;2578;51.622;7.046;2023-12-07T09:36:33;5.90;99.90
5118;DHT22;2578;51.622;7.046;2023-12-07T09:38:59;6.10;99.90
5118;DHT22;2578;51.622;7.046;2023-12-07T09:41:27;6.50;99.90
5118;DHT22;2578;51.622;7.046;2023-12-07T09:43:54;6.60;99.90
5118;DHT22;2578;51.622;7.046;2023-12-07T09:46:19;6.80;80.90
5118;DHT22;2578;51.622;7.046;2023-12-07T09:48:48;7.00;1.00
5118;DHT22;2578;51.622;7.046;2023-12-07T09:51:15;6.60;99.90
5118;DHT22;2578;51.622;7.046;2023-12-07T09:53:42;8.20;99.90
5118;DHT22;2578;51.622;7.046;2023-12-07T09:56:09;7.40;99.90
5118;DHT22;2578;51.622;7.046;2023-12-07T09:58:35;7.30;99.90
5118;DHT22;2578;51.622;7.046;2023-12-07T10:01:00;7.10;1.00
5118;DHT22;2578;51.622;7.046;2023-12-07T10:03:26;8.40;1.00
5118;DHT22;2578;51.622;7.046;2023-12-07T10:05:57;7.10;1.00
5118;DHT22;2578;51.622;7.046;2023-12-07T10:08:30;7.20;1.00
5118;DHT22;2578;51.622;7.046;2023-12-07T10:11:08;7.50;1.00
5118;DHT22;2578;51.622;7.046;2023-12-07T10:13:35;7.70;1.00
5118;DHT22;2578;51.622;7.046;2023-12-07T10:16:12;7.70;1.00
5118;DHT22;2578;51.622;7.046;2023-12-07T10:18:38;7.80;1.00
5118;DHT22;2578;51.622;7.046;2023-12-07T10:21:09;7.70;1.00
5118;DHT22;2578;51.622;7.046;2023-12-07T10:23:36;7.40;1.00
5118;DHT22;2578;51.622;7.046;2023-12-07T10:26:02;8.60;1.00
5118;DHT22;2578;51.622;7.046;2023-12-07T10:28:29;7.70;1.00
5118;DHT22;2578;51.622;7.046;2023-12-07T10:30:54;7.70;1.00
5118;DHT22;2578;51.622;7.046;2023-12-07T10:33:22;8.10;1.00
5118;DHT22;2578;51.622;7.046;2023-12-07T10:35:47;7.70;99.90
5118;DHT22;2578;51.622;7.046;2023-12-07T10:38:16;7.90;99.90
5118;DHT22;2578;51.622;7.046;2023-12-07T10:40:42;8.00;99.90
5118;DHT22;2578;51.622;7.046;2023-12-07T10:43:08;7.90;99.90
5118;DHT22;2578;51.622;7.046;2023-12-07T10:45:34;8.00;99.90
5118;DHT22;2578;51.622;7.046;2023-12-07T10:48:03;7.60;99.90
5118;DHT22;2578;51.622;7.046;2023-12-07T10:50:31;8.20;99.90
5118;DHT22;2578;51.622;7.046;2023-12-07T10:52:59;8.20;99.90
5118;DHT22;2578;51.622;7.046;2023-12-07T10:55:30;8.10;99.90
5118;DHT22;2578;51.622;7.046;2023-12-07T10:58:01;7.80;99.90
5118;DHT22;2578;51.622;7.046;2023-12-07T11:00:27;8.10;99.90
5118;DHT22;2578;51.622;7.046;2023-12-07T11:02:53;8.00;99.90
5118;DHT22;2578;51.622;7.046;2023-12-07T11:05:19;7.80;99.90
5118;DHT22;2578;51.622;7.046;2023-12-07T11:07:55;7.60;99.90
5118;DHT22;2578;51.622;7.046;2023-12-07T11:10:30;6.90;99.90
5118;DHT22;2578;51.622;7.046;2023-12-07T11:13:08;6.60;99.90
5118;DHT22;2578;51.622;7.046;2023-12-07T11:15:36;6.30;99.90
5118;DHT22;2578;51.622;7.046;2023-12-07T11:18:02;6.00;99.90
5118;DHT22;2578;51.622;7.046;2023-12-07T11:20:39;5.80;99.90
5118;DHT22;2578;51.622;7.046;2023-12-07T11:23:06;5.70;99.90
5118;DHT22;2578;51.622;7.046;2023-12-07T11:25:32;5.70;99.90
5118;DHT22;2578;51.622;7.046;2023-12-07T11:28:05;5.70;99.90
5118;DHT22;2578;51.622;7.046;2023-12-07T11:30:34;5.50;99.90
5118;DHT22;2578;51.622;7.046;2023-12-07T11:33:01;5.50;99.90
5118;DHT22;2578;51.622;7.046;2023-12-07T11:35:28;5.50;99.90
5118;DHT22;2578;51.622;7.046;2023-12-07T11:40:29;6.00;99.90
5118;DHT22;2578;51.622;7.046;2023-12-07T11:42:56;4.80;99.90
5118;DHT22;2578;51.622;7.046;2023-12-07T11:45:41;6.20;99.90
5118;DHT22;2578;51.622;7.046;2023-12-07T11:48:15;6.40;99.90
5118;DHT22;2578;51.622;7.046;2023-12-07T11:51:13;6.20;99.90
5118;DHT22;2578;51.622;7.046;2023-12-07T11:53:39;6.50;99.90
5118;DHT22;2578;51.622;7.046;2023-12-07T11:56:06;7.10;99.90
5118;DHT22;2578;51.622;7.046;2023-12-07T11:58:33;7.60;99.90
5118;DHT22;2578;51.622;7.046;2023-12-07T12:01:00;8.10;99.90
5118;DHT22;2578;51.622;7.046;2023-12-07T12:03:26;8.70;99.90
5118;DHT22;2578;51.622;7.046;2023-12-07T12:05:53;8.80;99.90
5118;DHT22;2578;51.622;7.046;2023-12-07T12:08:20;9.30;99.90
5118;DHT22;2578;51.622;7.046;2023-12-07T12:10:47;9.60;99.90
5118;DHT22;2578;51.622;7.046;2023-12-07T12:13:15;9.90;99.90
5118;DHT22;2578;51.622;7.046;2023-12-07T12:15:41;9.90;99.90
5118;DHT22;2578;51.622;7.046;2023-12-07T12:18:08;9.70;99.90
5118;DHT22;2578;51.622;7.046;2023-12-07T12:20:34;9.50;99.90
5118;DHT22;2578;51.622;7.046;2023-12-07T12:23:00;9.40;99.90
5118;DHT22;2578;51.622;7.046;2023-12-07T12:25:29;9.60;99.90
5118;DHT22;2578;51.622;7.046;2023-12-07T12:27:57;10.30;99.90
5118;DHT22;2578;51.622;7.046;2023-12-07T12:30:24;9.20;99.90
5118;DHT22;2578;51.622;7.046;2023-12-07T12:32:50;8.90;99.90
5118;DHT22;2578;51.622;7.046;2023-12-07T12:35:16;9.00;99.90
5118;DHT22;2578;51.622;7.046;2023-12-07T12:37:43;8.80;99.90
5118;DHT22;2578;51.622;7.046;2023-12-07T12:40:10;8.70;99.90
5118;DHT22;2578;51.622;7.046;2023-12-07T12:42:37;7.00;99.90
5118;DHT22;2578;51.622;7.046;2023-12-07T12:45:07;8.50;99.90
5118;DHT22;2578;51.622;7.046;2023-12-07T12:47:34;8.00;99.90
5118;DHT22;2578;51.622;7.046;2023-12-07T12:50:01;8.10;99.90
5118;DHT22;2578;51.622;7.046;2023-12-07T12:52:29;7.40;99.90
5118;DHT22;2578;51.622;7.046;2023-12-07T12:54:56;7.40;99.90
5118;DHT22;2578;51.622;7.046;2023-12-07T12:57:23;7.70;99.90
5118;DHT22;2578;51.622;7.046;2023-12-07T12:59:50;7.60;99.90
5118;DHT22;2578;51.622;7.046;2023-12-07T13:02:15;7.60;99.90
5118;DHT22;2578;51.622;7.046;2023-12-07T13:04:41;8.50;99.90
5118;DHT22;2578;51.622;7.046;2023-12-07T13:07:07;7.70;99.90
5118;DHT22;2578;51.622;7.046;2023-12-07T13:09:32;8.50;99.90
5118;DHT22;2578;51.622;7.046;2023-12-07T13:11:58;8.50;99.90
5118;DHT22;2578;51.622;7.046;2023-12-07T13:14:24;8.60;99.90
5118;DHT22;2578;51.622;7.046;2023-12-07T13:16:50;8.60;99.90
5118;DHT22;2578;51.622;7.046;2023-12-07T13:19:15;8.10;99.90
5118;DHT22;2578;51.622;7.046;2023-12-07T13:21:41;8.10;99.90
5118;DHT22;2578;51.622;7.046;2023-12-07T13:24:07;8.00;99.90
5118;DHT22;2578;51.622;7.046;2023-12-07T13:26:41;7.70;99.90
5118;DHT22;2578;51.622;7.046;2023-12-07T13:29:06;6.90;99.90
5118;DHT22;2578;51.622;7.046;2023-12-07T13:31:33;6.80;99.90
5118;DHT22;2578;51.622;7.046;2023-12-07T13:34:00;6.70;99.90
5118;DHT22;2578;51.622;7.046;2023-12-07T13:36:26;6.20;99.90
5118;DHT22;2578;51.622;7.046;2023-12-07T13:38:55;6.90;99.90
5118;DHT22;2578;51.622;7.046;2023-12-07T13:41:21;5.80;99.90
5118;DHT22;2578;51.622;7.046;2023-12-07T13:43:47;6.40;99.90
5118;DHT22;2578;51.622;7.046;2023-12-07T13:46:19;5.80;99.90
5118;DHT22;2578;51.622;7.046;2023-12-07T13:48:44;5.70;99.90
5118;DHT22;2578;51.622;7.046;2023-12-07T13:51:10;5.60;99.90
5118;DHT22;2578;51.622;7.046;2023-12-07T13:53:36;5.70;99.90
5118;DHT22;2578;51.622;7.046;2023-12-07T13:56:03;5.70;99.90
5118;DHT22;2578;51.622;7.046;2023-12-07T13:58:30;5.90;99.90
5118;DHT22;2578;51.622;7.046;2023-12-07T14:00:55;5.90;99.90
5118;DHT22;2578;51.622;7.046;2023-12-07T14:03:21;5.90;99.90
5118;DHT22;2578;51.622;7.046;2023-12-07T14:05:46;7.00;99.90
5118;DHT22;2578;51.622;7.046;2023-12-07T14:08:13;5.60;99.90
5118;DHT22;2578;51.622;7.046;2023-12-07T14:10:38;5.30;99.90
5118;DHT22;2578;51.622;7.046;2023-12-07T14:13:04;5.00;99.90
5118;DHT22;2578;51.622;7.046;2023-12-07T14:15:30;4.90;99.90
5118;DHT22;2578;51.622;7.046;2023-12-07T14:17:59;4.70;99.90
5118;DHT22;2578;51.622;7.046;2023-12-07T14:20:24;4.50;99.90
5118;DHT22;2578;51.622;7.046;2023-12-07T14:22:53;4.40;99.90
5118;DHT22;2578;51.622;7.046;2023-12-07T14:25:19;4.30;99.90
5118;DHT22;2578;51.622;7.046;2023-12-07T14:27:45;4.10;99.90
5118;DHT22;2578;51.622;7.046;2023-12-07T14:30:11;4.00;99.90
5118;DHT22;2578;51.622;7.046;2023-12-07T14:32:36;3.90;99.90
5118;DHT22;2578;51.622;7.046;2023-12-07T14:35:02;3.90;99.90
5118;DHT22;2578;51.622;7.046;2023-12-07T14:37:28;3.80;99.90
5118;DHT22;2578;51.622;7.046;2023-12-07T14:39:54;3.70;99.90
5118;DHT22;2578;51.622;7.046;2023-12-07T14:42:19;3.70;99.90
5118;DHT22;2578;51.622;7.046;2023-12-07T14:44:45;3.60;99.90
5118;DHT22;2578;51.622;7.046;2023-12-07T14:47:10;3.50;99.90
5118;DHT22;2578;51.622;7.046;2023-12-07T14:49:36;3.40;99.90
5118;DHT22;2578;51.622;7.046;2023-12-07T14:52:02;3.40;99.90
5118;DHT22;2578;51.622;7.046;2023-12-07T14:54:28;3.30;99.90
5118;DHT22;2578;51.622;7.046;2023-12-07T14:56:53;3.20;99.90
5118;DHT22;2578;51.622;7.046;2023-12-07T14:59:19;3.10;99.90
5118;DHT22;2578;51.622;7.046;2023-12-07T15:01:47;3.10;99.90
5118;DHT22;2578;51.622;7.046;2023-12-07T15:04:15;3.00;99.90
5118;DHT22;2578;51.622;7.046;2023-12-07T15:06:41;2.90;99.90
5118;DHT22;2578;51.622;7.046;2023-12-07T15:09:06;2.70;99.90
5118;DHT22;2578;51.622;7.046;2023-12-07T15:11:35;3.90;99.90
5118;DHT22;2578;51.622;7.046;2023-12-07T15:14:02;2.70;99.90
5118;DHT22;2578;51.622;7.046;2023-12-07T15:16:28;2.70;99.90
5118;DHT22;2578;51.622;7.046;2023-12-07T15:18:54;2.60;99.90
5118;DHT22;2578;51.622;7.046;2023-12-07T15:21:20;2.50;99.90
5118;DHT22;2578;51.622;7.046;2023-12-07T15:23:45;2.50;99.90
5118;DHT22;2578;51.622;7.046;2023-12-07T15:26:11;2.40;99.90
5118;DHT22;2578;51.622;7.046;2023-12-07T15:28:38;2.30;99.90
5118;DHT22;2578;51.622;7.046;2023-12-07T15:31:05;2.20;99.90
5118;DHT22;2578;51.622;7.046;2023-12-07T15:33:31;2.10;99.90
5118;DHT22;2578;51.622;7.046;2023-12-07T15:35:58;2.00;99.90
5118;DHT22;2578;51.622;7.046;2023-12-07T15:38:23;2.00;99.90
5118;DHT22;2578;51.622;7.046;2023-12-07T15:40:49;2.00;99.90
5118;DHT22;2578;51.622;7.046;2023-12-07T15:43:16;2.00;99.90
5118;DHT22;2578;51.622;7.046;2023-12-07T15:45:42;2.00;99.90
5118;DHT22;2578;51.622;7.046;2023-12-07T15:48:08;1.90;99.90
5118;DHT22;2578;51.622;7.046;2023-12-07T15:50:33;1.80;99.90
5118;DHT22;2578;51.622;7.046;2023-12-07T15:52:59;1.80;99.90
5118;DHT22;2578;51.622;7.046;2023-12-07T15:55:24;1.80;99.90
5118;DHT22;2578;51.622;7.046;2023-12-07T15:57:50;1.80;99.90
5118;DHT22;2578;51.622;7.046;2023-12-07T16:00:16;1.80;99.90
5118;DHT22;2578;51.622;7.046;2023-12-07T16:02:41;1.70;99.90
5118;DHT22;2578;51.622;7.046;2023-12-07T16:05:07;1.70;99.90
5118;DHT22;2578;51.622;7.046;2023-12-07T16:07:34;1.70;99.90
5118;DHT22;2578;51.622;7.046;2023-12-07T16:10:05;1.60;99.90
5118;DHT22;2578;51.622;7.046;2023-12-07T16:12:31;0.80;99.90
5118;DHT22;2578;51.622;7.046;2023-12-07T16:14:56;1.50;99.90
5118;DHT22;2578;51.622;7.046;2023-12-07T16:17:22;1.50;99.90
5118;DHT22;2578;51.622;7.046;2023-12-07T16:19:48;1.50;99.90
5118;DHT22;2578;51.622;7.046;2023-12-07T16:22:13;1.50;99.90
5118;DHT22;2578;51.622;7.046;2023-12-07T16:24:40;1.50;99.90